createdAt,value
2022-12-11T00:01:48.074Z,15.55
2022-12-11T00:06:54.562Z,16.38
2022-12-11T00:12:01.106Z,16.34
2022-12-11T00:17:07.529Z,16.34
2022-12-11T00:22:13.973Z,16.06
2022-12-11T00:27:20.139Z,16.12
2022-12-11T00:32:28.313Z,16.24
2022-12-11T00:37:32.140Z,15.87
2022-12-11T00:42:38.371Z,16.14
2022-12-11T00:47:44.964Z,16.72
2022-12-11T00:52:51.403Z,16.70
2022-12-11T00:57:57.920Z,16.16
2022-12-11T01:03:04.230Z,16.74
2022-12-11T01:08:10.422Z,16.46
2022-12-11T01:13:16.831Z,16.31
2022-12-11T01:18:23.000Z,16.87
2022-12-11T01:23:29.201Z,16.47
2022-12-11T01:28:35.491Z,18.71
2022-12-11T01:33:41.678Z,19.69
2022-12-11T01:38:48.028Z,19.57
2022-12-11T01:43:54.141Z,20.75
2022-12-11T01:50:03.712Z,25.37
2022-12-11T01:55:10.043Z,21.75
2022-12-11T02:00:15.634Z,21.35
2022-12-11T02:05:21.792Z,20.76
2022-12-11T02:10:27.959Z,20.73
2022-12-11T02:15:34.249Z,20.13
2022-12-11T02:20:40.678Z,21.70
2022-12-11T02:25:46.832Z,22.31
2022-12-11T02:30:53.034Z,21.87
2022-12-11T02:35:59.135Z,20.84
2022-12-11T02:41:05.386Z,21.69
2022-12-11T02:46:11.539Z,20.80
2022-12-11T02:51:17.666Z,21.47
2022-12-11T02:56:24.658Z,21.25
2022-12-11T03:01:31.083Z,20.82
2022-12-11T03:07:46.476Z,23.61
2022-12-11T03:12:53.902Z,19.78
2022-12-11T03:17:58.423Z,20.12
2022-12-11T03:23:04.615Z,20.01
2022-12-11T03:28:11.019Z,19.86
2022-12-11T03:33:17.188Z,19.54
2022-12-11T03:38:23.357Z,19.55
2022-12-11T03:43:29.599Z,19.28
2022-12-11T03:48:35.711Z,18.79
2022-12-11T03:53:41.903Z,19.08
2022-12-11T03:58:48.096Z,18.41
2022-12-11T04:03:54.413Z,18.80
2022-12-11T04:09:00.805Z,18.43
2022-12-11T04:14:07.087Z,17.83
2022-12-11T04:19:13.182Z,17.48
2022-12-11T04:24:19.375Z,18.32
2022-12-11T04:29:25.444Z,16.89
2022-12-11T04:34:31.666Z,16.39
2022-12-11T04:39:37.811Z,17.08
2022-12-11T04:44:44.304Z,16.11
2022-12-11T04:49:50.385Z,16.59
2022-12-11T04:54:56.632Z,16.11
2022-12-11T05:00:02.771Z,14.97
2022-12-11T05:05:09.242Z,15.44
2022-12-11T05:10:15.069Z,15.20
2022-12-11T05:15:21.267Z,14.57
2022-12-11T05:20:27.405Z,14.25
2022-12-11T05:25:33.689Z,13.48
2022-12-11T05:30:39.812Z,12.99
2022-12-11T05:35:46.167Z,13.56
2022-12-11T05:40:52.381Z,13.00
2022-12-11T05:45:58.556Z,12.94
2022-12-11T05:51:04.676Z,12.53
2022-12-11T05:56:10.871Z,11.96
2022-12-11T06:01:16.963Z,12.29
2022-12-11T06:06:23.253Z,12.40
2022-12-11T06:12:33.108Z,12.96
2022-12-11T06:17:39.363Z,17.66
2022-12-11T06:22:45.566Z,11.03
2022-12-11T06:27:51.845Z,10.67
2022-12-11T06:32:58.361Z,11.04
2022-12-11T06:38:04.748Z,10.61
2022-12-11T06:43:11.336Z,10.24
2022-12-11T06:48:18.019Z,10.26
2022-12-11T06:53:24.139Z,10.51
2022-12-11T06:58:30.338Z,10.60
2022-12-11T07:03:36.500Z,10.36
2022-12-11T07:08:42.715Z,10.36
2022-12-11T07:13:48.776Z,10.42
2022-12-11T07:18:54.955Z,10.07
2022-12-11T07:24:01.048Z,10.00
2022-12-11T07:29:07.245Z,10.61
2022-12-11T07:34:13.427Z,10.20
2022-12-11T07:39:19.702Z,10.61
2022-12-11T07:44:25.849Z,10.41
2022-12-11T07:49:32.066Z,10.46
2022-12-11T07:54:38.227Z,10.30
2022-12-11T07:59:44.449Z,10.66
2022-12-11T08:04:50.594Z,10.15
2022-12-11T08:09:56.822Z,9.72
2022-12-11T08:15:02.917Z,10.35
2022-12-11T08:20:09.905Z,10.16
2022-12-11T08:25:16.468Z,9.71
2022-12-11T08:30:23.068Z,9.67
2022-12-11T08:35:29.184Z,9.44
2022-12-11T08:40:35.810Z,9.76
2022-12-11T08:45:41.991Z,9.45
2022-12-11T08:52:00.238Z,11.44
2022-12-11T08:57:06.645Z,9.78
2022-12-11T09:02:13.004Z,9.71
2022-12-11T09:07:19.122Z,9.64
2022-12-11T09:12:25.318Z,9.89
2022-12-11T09:17:31.705Z,9.94
2022-12-11T09:22:38.230Z,10.26
2022-12-11T09:27:44.355Z,10.20
2022-12-11T09:33:35.244Z,11.15
2022-12-11T09:38:41.354Z,10.77
2022-12-11T09:43:47.501Z,11.95
2022-12-11T09:48:53.616Z,10.76
2022-12-11T09:53:59.823Z,10.32
2022-12-11T09:59:05.986Z,10.25
2022-12-11T10:04:12.791Z,9.91
2022-12-11T10:09:18.888Z,9.56
2022-12-11T10:14:25.356Z,9.84
2022-12-11T10:19:31.422Z,8.92
2022-12-11T10:29:43.293Z,8.34
2022-12-11T10:34:49.782Z,8.98
2022-12-11T10:39:55.976Z,8.23
2022-12-11T10:45:02.276Z,7.71
2022-12-11T10:50:08.690Z,8.06
2022-12-11T10:55:15.235Z,7.95
2022-12-11T11:00:21.736Z,7.71
2022-12-11T11:05:27.945Z,9.18
2022-12-11T11:10:34.059Z,7.67
2022-12-11T11:15:40.286Z,9.08
2022-12-11T11:20:46.410Z,8.78
2022-12-11T11:25:52.717Z,7.54
2022-12-11T11:30:58.941Z,7.17
2022-12-11T11:36:06.909Z,8.07
2022-12-11T11:41:15.156Z,7.37
2022-12-11T11:46:18.764Z,8.03
2022-12-11T11:52:29.580Z,8.71
2022-12-11T11:57:35.950Z,7.31
2022-12-11T12:02:42.188Z,8.21
2022-12-11T12:07:48.897Z,9.04
2022-12-11T12:12:57.483Z,9.28
2022-12-11T12:18:03.746Z,10.01
2022-12-11T12:23:10.322Z,9.87
2022-12-11T12:28:16.733Z,10.41
2022-12-11T12:33:25.365Z,9.84
2022-12-11T12:39:11.705Z,10.60
2022-12-11T12:44:17.975Z,8.47
2022-12-11T12:49:24.207Z,7.77
2022-12-11T12:54:30.353Z,6.96
2022-12-11T12:59:36.601Z,7.55
2022-12-11T13:04:56.103Z,7.67
2022-12-11T13:09:48.777Z,8.22
2022-12-11T13:14:54.846Z,9.05
2022-12-11T13:20:01.023Z,9.24
2022-12-11T13:25:07.185Z,10.07
2022-12-11T13:30:13.494Z,9.75
2022-12-11T13:35:19.548Z,10.21
2022-12-11T13:40:26.107Z,10.80
2022-12-11T13:45:32.245Z,9.66
2022-12-11T13:50:38.405Z,8.96
2022-12-11T13:55:44.560Z,9.13
2022-12-11T14:00:50.830Z,9.83
2022-12-11T14:05:57.259Z,9.29
2022-12-11T14:11:03.640Z,8.78
2022-12-11T14:16:09.751Z,8.51
2022-12-11T14:21:15.937Z,9.53
2022-12-11T14:26:22.076Z,9.92
2022-12-11T14:31:28.299Z,9.32
2022-12-11T14:36:34.780Z,8.58
2022-12-11T14:41:40.974Z,8.19
2022-12-11T14:46:47.359Z,8.53
2022-12-11T14:51:53.546Z,8.93
2022-12-11T14:57:00.075Z,8.79
2022-12-11T15:02:06.363Z,8.41
2022-12-11T15:07:12.354Z,9.27
2022-12-11T15:12:18.911Z,9.71
2022-12-11T15:17:25.044Z,10.36
2022-12-11T15:22:31.311Z,10.81
2022-12-11T15:27:37.782Z,11.22
2022-12-11T15:32:44.255Z,10.90
2022-12-11T15:37:50.417Z,10.60
2022-12-11T15:42:57.055Z,10.66
2022-12-11T15:48:03.230Z,10.13
2022-12-11T15:53:09.381Z,10.11
2022-12-11T15:58:15.532Z,10.61
2022-12-11T16:03:22.064Z,10.60
2022-12-11T16:08:28.574Z,11.58
2022-12-11T16:13:35.066Z,11.48
2022-12-11T16:18:41.141Z,11.44
2022-12-11T16:23:47.405Z,10.87
2022-12-11T16:28:53.587Z,11.45
2022-12-11T16:33:59.871Z,12.06
2022-12-11T16:39:05.962Z,11.19
2022-12-11T16:44:12.276Z,10.58
2022-12-11T16:49:18.413Z,10.83
2022-12-11T16:54:24.731Z,11.49
2022-12-11T16:59:36.576Z,12.21
2022-12-11T17:04:36.672Z,11.68
2022-12-11T17:09:42.860Z,11.76
2022-12-11T17:14:49.254Z,11.88
2022-12-11T17:19:55.326Z,12.60
2022-12-11T17:25:01.985Z,11.65
2022-12-11T17:30:08.087Z,11.98
2022-12-11T17:35:14.907Z,12.34
2022-12-11T17:40:20.939Z,11.90
2022-12-11T17:45:27.074Z,10.99
2022-12-11T17:50:33.238Z,10.11
2022-12-11T17:55:39.468Z,10.96
2022-12-11T18:00:45.590Z,10.51
2022-12-11T18:05:52.124Z,10.73
2022-12-11T18:10:58.575Z,9.75
2022-12-11T18:16:04.828Z,9.59
2022-12-11T18:21:10.927Z,9.37
2022-12-11T18:26:17.175Z,9.33
2022-12-11T18:31:24.194Z,9.84
2022-12-11T18:36:30.370Z,10.67
2022-12-11T18:41:37.275Z,10.82
2022-12-11T18:46:43.619Z,9.76
2022-12-11T18:51:49.626Z,9.92
2022-12-11T18:56:55.977Z,9.85
2022-12-11T19:02:02.248Z,9.96
2022-12-11T19:07:09.166Z,10.09
2022-12-11T19:12:15.297Z,9.78
2022-12-11T19:17:21.532Z,9.62
2022-12-11T19:22:27.697Z,9.59
2022-12-11T19:27:34.002Z,10.86
2022-12-11T19:32:40.109Z,10.39
2022-12-11T19:37:46.478Z,9.68
2022-12-11T19:42:52.615Z,10.09
2022-12-11T19:47:58.947Z,10.72
2022-12-11T19:53:05.138Z,10.14
2022-12-11T19:58:11.328Z,10.12
2022-12-11T20:03:17.486Z,11.15
2022-12-11T20:13:29.302Z,10.33
2022-12-11T20:18:35.809Z,10.40
2022-12-11T20:23:41.968Z,10.68
2022-12-11T20:28:48.167Z,10.25
2022-12-11T20:33:54.671Z,9.73
2022-12-11T20:39:00.871Z,9.71
2022-12-11T20:44:07.380Z,10.30
2022-12-11T20:49:13.521Z,10.07
2022-12-11T20:54:20.436Z,10.23
2022-12-11T20:59:26.592Z,10.57
2022-12-11T21:04:32.653Z,10.86
2022-12-11T21:09:38.844Z,10.93
2022-12-11T21:14:45.331Z,11.09
2022-12-11T21:19:51.574Z,10.32
2022-12-11T21:24:57.642Z,10.69
2022-12-11T21:30:03.829Z,10.98
2022-12-11T21:35:10.175Z,12.60
2022-12-11T21:40:16.424Z,11.56
2022-12-11T21:46:05.056Z,11.55
2022-12-11T21:50:28.233Z,11.42
2022-12-11T21:55:34.386Z,11.03
2022-12-11T22:00:40.737Z,11.68
2022-12-11T22:05:46.736Z,12.13
2022-12-11T22:10:52.940Z,12.49
2022-12-11T22:15:59.101Z,13.93
2022-12-11T22:21:05.409Z,13.61
2022-12-11T22:26:11.487Z,13.74
2022-12-11T22:31:17.756Z,13.64
2022-12-11T22:36:24.184Z,14.42
2022-12-11T22:41:30.355Z,15.65
2022-12-11T22:46:36.508Z,15.67
2022-12-11T22:51:43.044Z,16.58
2022-12-11T22:56:49.145Z,16.34
2022-12-11T23:01:55.418Z,16.05
2022-12-11T23:07:01.607Z,16.67
2022-12-11T23:12:07.944Z,16.32
2022-12-11T23:17:14.055Z,16.59
2022-12-11T23:22:21.136Z,15.91
2022-12-11T23:27:27.305Z,16.34
2022-12-11T23:32:33.523Z,16.63
2022-12-11T23:37:39.655Z,16.54
2022-12-11T23:42:45.856Z,16.34
2022-12-11T23:47:51.949Z,16.77
2022-12-11T23:52:58.282Z,16.68
2022-12-11T23:58:04.808Z,16.77
